EGAE - Eglinton-Londonderr
Distance from station: E 5mi, 14km
Updated: 08/17/2018 12:50pm
NOT Current
Partly Cloudy
Partly Cloudy
 Wind from WSW
Wind: WSW 18 mph , 30 km/h
Temperature: 61°F , 16°C
Dew Point: 57°F , 14°C
Humidity: 88%
Barometer: 29.85 inHg , 1011 hPa
Clouds: Partly Cloudy
Visibility: 6 miles , 10 km
Cloud details: Partly Cloudy 1000 ft
2018/08/17 19:50 EGAE 171950Z 24016KT 9999 SCT010 16/14 Q1011